createdAt,value
2018-03-02T00:00:07.901Z,85.20
2018-03-02T00:00:42.359Z,84.20
2018-03-02T00:01:16.040Z,84.10
2018-03-02T00:01:49.728Z,84.20
2018-03-02T00:02:23.072Z,84.40
2018-03-02T00:02:57.537Z,84.30
2018-03-02T00:03:31.248Z,84.00
2018-03-02T00:04:04.961Z,84.70
2018-03-02T00:04:39.394Z,84.40
2018-03-02T00:05:13.084Z,84.60
2018-03-02T00:05:46.750Z,84.50
2018-03-02T00:06:21.208Z,84.90
2018-03-02T00:06:54.580Z,85.00
2018-03-02T00:07:28.273Z,85.20
2018-03-02T00:08:01.963Z,84.10
2018-03-02T00:08:35.640Z,84.60
2018-03-02T00:09:09.352Z,86.00
2018-03-02T00:09:43.039Z,85.70
2018-03-02T00:10:16.084Z,86.30
2018-03-02T00:10:49.779Z,86.60
2018-03-02T00:11:23.452Z,85.80
2018-03-02T00:11:57.896Z,86.00
2018-03-02T00:12:31.581Z,85.80
2018-03-02T00:13:05.274Z,86.90
2018-03-02T00:13:38.962Z,86.70
2018-03-02T00:14:12.929Z,86.90
2018-03-02T00:14:47.384Z,86.60
2018-03-02T00:15:21.064Z,84.10
2018-03-02T00:15:54.743Z,87.10
2018-03-02T00:16:28.451Z,86.80
2018-03-02T00:17:02.174Z,85.60
2018-03-02T00:17:36.631Z,88.40
2018-03-02T00:18:09.981Z,86.40
2018-03-02T00:18:44.104Z,88.20
2018-03-02T00:19:17.840Z,87.10
2018-03-02T00:19:51.529Z,88.40
2018-03-02T00:20:25.222Z,89.40
2018-03-02T00:20:58.918Z,86.90
2018-03-02T00:21:32.601Z,87.70
2018-03-02T00:22:06.291Z,87.80
2018-03-02T00:22:39.990Z,88.60
2018-03-02T00:23:13.719Z,88.10
2018-03-02T00:23:47.419Z,88.80
2018-03-02T00:24:21.156Z,86.80
2018-03-02T00:24:54.839Z,87.40
2018-03-02T00:25:28.372Z,88.10
2018-03-02T00:26:02.062Z,87.50
2018-03-02T00:26:35.771Z,86.10
2018-03-02T00:27:09.471Z,86.70
2018-03-02T00:27:43.151Z,86.70
2018-03-02T00:28:16.908Z,85.40
2018-03-02T00:28:52.857Z,86.40
2018-03-02T00:29:27.351Z,86.80
2018-03-02T00:30:01.806Z,87.10
2018-03-02T00:30:35.495Z,86.20
2018-03-02T00:31:09.186Z,87.80
2018-03-02T00:31:42.881Z,87.90
2018-03-02T00:32:16.619Z,87.30
2018-03-02T00:32:51.107Z,87.40
2018-03-02T00:33:24.795Z,85.40
2018-03-02T00:33:58.210Z,86.20
2018-03-02T00:34:32.705Z,83.10
2018-03-02T00:35:06.435Z,83.50
2018-03-02T00:35:40.117Z,85.70
2018-03-02T00:36:13.840Z,87.60
2018-03-02T00:36:47.553Z,87.90
2018-03-02T00:37:21.245Z,86.80
2018-03-02T00:37:54.941Z,86.70
2018-03-02T00:38:29.438Z,87.90
2018-03-02T00:39:03.146Z,89.70
2018-03-02T00:39:36.873Z,87.70
2018-03-02T00:40:09.993Z,88.20
2018-03-02T00:40:43.737Z,89.70
2018-03-02T00:41:17.422Z,87.80
2018-03-02T00:41:53.738Z,87.30
2018-03-02T00:42:27.426Z,85.50
2018-03-02T00:43:01.119Z,87.60
2018-03-02T00:43:34.833Z,86.20
2018-03-02T00:44:09.571Z,89.30
2018-03-02T00:44:43.310Z,88.20
2018-03-02T00:45:17.005Z,89.20
2018-03-02T00:45:53.380Z,89.50
2018-03-02T00:46:27.346Z,88.60
2018-03-02T00:47:01.049Z,87.90
2018-03-02T00:47:35.489Z,88.70
2018-03-02T00:48:10.671Z,88.60
2018-03-02T00:48:44.555Z,87.90
2018-03-02T00:49:18.242Z,88.50
2018-03-02T00:49:52.300Z,87.80
2018-03-02T00:50:25.800Z,86.60
2018-03-02T00:50:59.673Z,86.80
2018-03-02T00:51:35.379Z,85.90
2018-03-02T00:52:09.272Z,86.20
2018-03-02T00:52:42.626Z,86.10
2018-03-02T00:53:16.325Z,86.90
2018-03-02T00:53:52.247Z,84.20
2018-03-02T00:54:25.930Z,85.50
2018-03-02T00:54:59.622Z,87.90
2018-03-02T00:55:36.082Z,88.50
2018-03-02T00:56:09.587Z,87.80
2018-03-02T00:56:43.276Z,87.80
2018-03-02T00:57:16.945Z,88.30
2018-03-02T00:57:50.622Z,89.70
2018-03-02T00:58:24.319Z,89.60
2018-03-02T00:58:58.038Z,90.00
2018-03-02T00:59:31.735Z,90.70
2018-03-02T01:00:05.434Z,90.00
2018-03-02T01:00:39.109Z,89.30
2018-03-02T01:01:12.786Z,86.80
2018-03-02T01:01:46.472Z,89.00
2018-03-02T01:02:20.197Z,87.20
2018-03-02T01:02:53.734Z,89.00
2018-03-02T01:03:27.112Z,88.70
2018-03-02T01:04:00.827Z,88.60
2018-03-02T01:04:34.521Z,87.60
2018-03-02T01:05:08.274Z,89.10
2018-03-02T01:05:41.978Z,89.30
2018-03-02T01:06:15.689Z,87.30
2018-03-02T01:06:49.396Z,88.60
2018-03-02T01:07:23.097Z,87.10
2018-03-02T01:07:56.782Z,89.60
2018-03-02T01:08:30.655Z,88.80
2018-03-02T01:09:03.502Z,89.80
2018-03-02T01:09:36.847Z,89.30
2018-03-02T01:10:10.254Z,88.60
2018-03-02T01:10:43.924Z,88.80
2018-03-02T01:11:17.279Z,89.00
2018-03-02T01:11:50.959Z,89.30
2018-03-02T01:12:24.658Z,88.20
2018-03-02T01:12:58.338Z,88.10
2018-03-02T01:13:32.026Z,88.20
2018-03-02T01:14:05.427Z,88.20
2018-03-02T01:14:39.200Z,88.00
2018-03-02T01:15:12.924Z,89.00
2018-03-02T01:15:46.280Z,87.80
2018-03-02T01:16:19.637Z,88.60
2018-03-02T01:16:53.387Z,88.50
2018-03-02T01:17:27.871Z,87.70
2018-03-02T01:18:03.080Z,87.40
2018-03-02T01:18:36.800Z,89.50
2018-03-02T01:19:10.469Z,88.60
2018-03-02T01:19:44.158Z,88.00
2018-03-02T01:20:17.872Z,89.30
2018-03-02T01:20:51.232Z,89.10
2018-03-02T01:21:24.920Z,88.30
2018-03-02T01:21:58.606Z,89.30
2018-03-02T01:22:32.298Z,89.00
2018-03-02T01:23:05.989Z,87.70
2018-03-02T01:23:39.737Z,87.60
2018-03-02T01:24:13.243Z,90.00
2018-03-02T01:24:46.936Z,89.10
2018-03-02T01:25:20.722Z,89.10
2018-03-02T01:25:54.410Z,89.00
2018-03-02T01:26:28.102Z,89.10
2018-03-02T01:27:01.795Z,90.20
2018-03-02T01:27:35.177Z,86.90
2018-03-02T01:28:08.674Z,87.60
2018-03-02T01:28:42.174Z,89.00
2018-03-02T01:29:15.861Z,88.20
2018-03-02T01:29:49.372Z,89.20
2018-03-02T01:30:22.546Z,87.30
2018-03-02T01:30:56.470Z,87.50
2018-03-02T01:31:30.916Z,85.50
2018-03-02T01:32:04.330Z,84.80
2018-03-02T01:32:37.692Z,86.40
2018-03-02T01:33:11.366Z,90.00
2018-03-02T01:33:45.043Z,90.60
2018-03-02T01:34:18.738Z,90.10
2018-03-02T01:34:52.423Z,87.90
2018-03-02T01:35:26.136Z,88.40
2018-03-02T01:35:59.830Z,85.50
2018-03-02T01:36:33.521Z,86.80
2018-03-02T01:37:07.203Z,86.70
2018-03-02T01:37:40.886Z,86.30
2018-03-02T01:38:14.054Z,84.40
2018-03-02T01:38:47.741Z,83.60
2018-03-02T01:39:21.428Z,84.90
2018-03-02T01:39:55.135Z,84.30
2018-03-02T01:40:28.855Z,85.80
2018-03-02T01:41:02.550Z,84.10
2018-03-02T01:41:36.244Z,83.30
2018-03-02T01:42:09.974Z,83.90
2018-03-02T01:42:43.658Z,85.80
2018-03-02T01:43:17.029Z,86.10
2018-03-02T01:43:51.561Z,90.80
2018-03-02T01:44:25.059Z,87.30
2018-03-02T01:44:58.575Z,86.30
2018-03-02T01:45:32.084Z,84.80
2018-03-02T01:46:06.585Z,84.50
2018-03-02T01:46:40.282Z,83.90
2018-03-02T01:47:14.726Z,84.60
2018-03-02T01:47:48.404Z,84.60
2018-03-02T01:48:22.102Z,83.90
2018-03-02T01:48:55.806Z,83.60
2018-03-02T01:49:29.506Z,83.70
2018-03-02T01:50:02.869Z,83.50
2018-03-02T01:50:36.590Z,83.90
2018-03-02T01:51:09.608Z,83.20
2018-03-02T01:51:49.617Z,83.90
2018-03-02T01:52:23.285Z,83.40
2018-03-02T01:52:56.967Z,83.80
2018-03-02T01:53:30.669Z,88.40
2018-03-02T01:54:04.196Z,83.50
2018-03-02T01:54:38.625Z,84.70
2018-03-02T01:55:12.305Z,84.60
2018-03-02T01:55:46.030Z,85.70
2018-03-02T01:56:19.712Z,84.90
2018-03-02T01:56:53.386Z,84.20
2018-03-02T01:57:27.086Z,84.40
2018-03-02T01:58:00.786Z,84.30
2018-03-02T01:58:34.465Z,84.00
2018-03-02T01:59:08.158Z,83.60
2018-03-02T01:59:41.850Z,83.40
2018-03-02T02:00:18.303Z,82.80
2018-03-02T02:00:51.682Z,82.60
2018-03-02T02:01:25.386Z,83.00
2018-03-02T02:01:59.089Z,83.40
2018-03-02T02:02:32.779Z,83.30
2018-03-02T02:03:06.129Z,83.30
2018-03-02T02:03:39.818Z,83.20
2018-03-02T02:04:13.519Z,83.20
2018-03-02T02:04:47.213Z,83.40
2018-03-02T02:05:20.900Z,84.00
2018-03-02T02:05:54.611Z,83.80
2018-03-02T02:06:28.311Z,84.00
2018-03-02T02:07:01.992Z,83.40
2018-03-02T02:07:35.704Z,84.10
2018-03-02T02:08:09.402Z,84.40
2018-03-02T02:08:43.144Z,83.80
2018-03-02T02:09:16.848Z,82.70
2018-03-02T02:09:52.093Z,82.60
2018-03-02T02:10:25.778Z,82.80
2018-03-02T02:10:59.486Z,82.90
2018-03-02T02:11:33.178Z,83.40
2018-03-02T02:12:06.840Z,83.40
2018-03-02T02:12:40.522Z,83.30
2018-03-02T02:13:14.218Z,83.80
2018-03-02T02:13:47.907Z,83.90
2018-03-02T02:14:21.592Z,84.80
2018-03-02T02:14:54.952Z,84.80
2018-03-02T02:15:28.646Z,84.50
2018-03-02T02:16:02.350Z,85.50
2018-03-02T02:16:36.052Z,84.90
2018-03-02T02:17:09.735Z,85.50
2018-03-02T02:17:43.403Z,85.40
2018-03-02T02:18:17.109Z,86.30
2018-03-02T02:18:50.468Z,85.50
2018-03-02T02:19:24.162Z,85.80
2018-03-02T02:19:57.860Z,85.60
2018-03-02T02:20:31.535Z,85.40
2018-03-02T02:21:05.240Z,85.30
2018-03-02T02:21:38.924Z,85.50
2018-03-02T02:22:12.601Z,85.70
2018-03-02T02:22:46.286Z,85.70
2018-03-02T02:23:19.974Z,85.80
2018-03-02T02:23:54.434Z,85.30
2018-03-02T02:24:28.111Z,85.20
2018-03-02T02:25:01.779Z,84.80
2018-03-02T02:25:35.467Z,84.90
2018-03-02T02:26:09.013Z,85.20
2018-03-02T02:26:42.705Z,85.90
2018-03-02T02:27:17.151Z,85.20
2018-03-02T02:27:50.822Z,85.00
2018-03-02T02:28:25.289Z,84.60
2018-03-02T02:28:58.992Z,84.60
2018-03-02T02:29:32.683Z,84.60
2018-03-02T02:30:06.441Z,84.30
2018-03-02T02:30:40.130Z,84.80
2018-03-02T02:31:13.859Z,84.40
2018-03-02T02:31:47.246Z,85.00
2018-03-02T02:32:20.936Z,84.60
2018-03-02T02:32:54.793Z,84.60
2018-03-02T02:33:28.140Z,84.80
2018-03-02T02:34:01.845Z,84.70
2018-03-02T02:34:35.545Z,84.90
2018-03-02T02:35:08.952Z,85.10
2018-03-02T02:35:42.662Z,85.20
2018-03-02T02:36:16.068Z,84.80
2018-03-02T02:36:50.556Z,84.30
2018-03-02T02:37:24.245Z,84.00
2018-03-02T02:37:57.612Z,83.70
2018-03-02T02:38:31.312Z,83.60
2018-03-02T02:39:04.536Z,83.80
2018-03-02T02:39:38.222Z,84.00
2018-03-02T02:40:11.565Z,84.10
2018-03-02T02:40:45.246Z,84.90
2018-03-02T02:41:18.989Z,84.90
2018-03-02T02:41:52.335Z,85.20
2018-03-02T02:42:26.022Z,85.80
2018-03-02T02:43:00.145Z,84.60
2018-03-02T02:43:34.581Z,84.10
2018-03-02T02:44:08.254Z,84.70
2018-03-02T02:44:41.938Z,84.50
2018-03-02T02:45:15.279Z,83.90
2018-03-02T02:45:48.971Z,84.10
2018-03-02T02:46:22.686Z,84.30
2018-03-02T02:46:57.151Z,84.10
2018-03-02T02:47:30.841Z,84.10
2018-03-02T02:48:04.538Z,84.50
2018-03-02T02:48:38.221Z,84.00
2018-03-02T02:49:11.903Z,84.20
2018-03-02T02:49:45.243Z,83.90
2018-03-02T02:50:19.697Z,83.30
2018-03-02T02:50:53.392Z,83.90
2018-03-02T02:51:27.141Z,83.90
2018-03-02T02:52:00.838Z,84.00
2018-03-02T02:52:34.204Z,84.30
2018-03-02T02:53:08.657Z,83.90
2018-03-02T02:53:42.350Z,84.00
2018-03-02T02:54:16.046Z,83.80
2018-03-02T02:54:49.746Z,83.90
2018-03-02T02:55:23.430Z,83.80
2018-03-02T02:55:57.146Z,83.40
2018-03-02T02:56:30.860Z,83.80
2018-03-02T02:57:04.558Z,83.30
2018-03-02T02:57:38.231Z,83.50
2018-03-02T02:58:12.683Z,83.30
2018-03-02T02:58:46.372Z,83.20
2018-03-02T02:59:20.063Z,83.30
2018-03-02T02:59:53.751Z,82.80
2018-03-02T03:00:27.448Z,82.90
2018-03-02T03:01:01.154Z,82.50
2018-03-02T03:01:34.879Z,82.40
2018-03-02T03:02:09.336Z,82.00
2018-03-02T03:02:44.437Z,82.30
2018-03-02T03:03:18.145Z,82.20
2018-03-02T03:03:51.823Z,82.00
2018-03-02T03:04:25.495Z,81.90
2018-03-02T03:04:59.191Z,82.20
2018-03-02T03:05:32.902Z,82.80
2018-03-02T03:06:06.611Z,83.20
2018-03-02T03:06:40.343Z,82.40
2018-03-02T03:07:14.806Z,82.80
2018-03-02T03:07:48.499Z,82.80
2018-03-02T03:08:22.190Z,82.90
2018-03-02T03:08:55.879Z,83.20
2018-03-02T03:09:29.571Z,83.30
2018-03-02T03:10:03.271Z,83.80
2018-03-02T03:10:36.990Z,84.00
2018-03-02T03:11:11.459Z,83.80
2018-03-02T03:11:45.182Z,84.50
2018-03-02T03:12:19.665Z,83.80
2018-03-02T03:12:53.040Z,83.80
2018-03-02T03:13:26.720Z,83.50
2018-03-02T03:14:00.406Z,83.70
2018-03-02T03:14:33.751Z,83.50
2018-03-02T03:15:08.216Z,83.70
2018-03-02T03:15:41.895Z,83.70
2018-03-02T03:16:15.574Z,83.60
2018-03-02T03:16:48.977Z,83.80
2018-03-02T03:17:22.660Z,83.60
2018-03-02T03:17:56.356Z,83.40
2018-03-02T03:18:30.050Z,83.50
2018-03-02T03:19:03.727Z,83.50
2018-03-02T03:19:37.425Z,83.30
2018-03-02T03:20:11.115Z,82.50
2018-03-02T03:20:44.786Z,82.40
2018-03-02T03:21:18.468Z,82.00
2018-03-02T03:21:52.162Z,82.30
2018-03-02T03:22:25.824Z,82.20
2018-03-02T03:23:00.279Z,82.60
2018-03-02T03:23:33.969Z,82.60
2018-03-02T03:24:07.664Z,82.70
2018-03-02T03:24:41.348Z,82.60
2018-03-02T03:25:15.037Z,82.50
2018-03-02T03:25:48.718Z,82.10
2018-03-02T03:26:22.418Z,82.30
2018-03-02T03:26:56.431Z,82.50
2018-03-02T03:27:30.106Z,82.90
2018-03-02T03:28:03.485Z,83.60
2018-03-02T03:28:37.176Z,83.20
2018-03-02T03:29:11.076Z,83.10
2018-03-02T03:29:44.746Z,83.20
2018-03-02T03:30:18.430Z,83.40
2018-03-02T03:30:52.124Z,83.40
2018-03-02T03:31:25.830Z,83.70
2018-03-02T03:31:59.552Z,83.80
2018-03-02T03:32:33.222Z,83.80
2018-03-02T03:33:06.887Z,83.80
2018-03-02T03:33:40.578Z,83.60
2018-03-02T03:34:14.262Z,84.00
2018-03-02T03:34:48.006Z,84.20
2018-03-02T03:35:22.478Z,85.00
2018-03-02T03:35:56.150Z,84.70
2018-03-02T03:36:29.510Z,84.70
2018-03-02T03:37:03.260Z,84.70
2018-03-02T03:37:36.974Z,85.10
2018-03-02T03:38:11.441Z,85.10
2018-03-02T03:38:45.132Z,85.00
2018-03-02T03:39:18.854Z,84.70
2018-03-02T03:39:53.369Z,85.00
2018-03-02T03:40:27.070Z,85.10
2018-03-02T03:41:01.523Z,85.20
2018-03-02T03:41:35.219Z,85.50
2018-03-02T03:42:08.919Z,85.30
2018-03-02T03:42:42.598Z,85.00
2018-03-02T03:43:15.610Z,85.20
2018-03-02T03:43:49.731Z,85.00
2018-03-02T03:44:23.423Z,85.00
2018-03-02T03:44:57.109Z,85.00
2018-03-02T03:45:30.802Z,85.00
2018-03-02T03:46:04.489Z,84.90
2018-03-02T03:46:38.173Z,85.00
2018-03-02T03:47:12.642Z,85.30
2018-03-02T03:47:46.336Z,85.10
2018-03-02T03:48:20.021Z,85.20
2018-03-02T03:48:53.701Z,85.00
2018-03-02T03:49:27.451Z,84.80
2018-03-02T03:50:00.811Z,85.00
2018-03-02T03:50:35.269Z,84.80
2018-03-02T03:51:08.969Z,84.70
2018-03-02T03:51:42.659Z,84.50
2018-03-02T03:52:16.388Z,84.40
2018-03-02T03:52:50.896Z,84.40
2018-03-02T03:53:25.345Z,84.40
2018-03-02T03:53:59.054Z,84.10
2018-03-02T03:54:32.760Z,86.20
2018-03-02T03:55:06.448Z,86.80
2018-03-02T03:55:40.830Z,84.60
2018-03-02T03:56:14.525Z,84.80
2018-03-02T03:56:48.220Z,84.80
2018-03-02T03:57:22.291Z,84.40
2018-03-02T03:57:55.470Z,85.20
2018-03-02T03:58:29.177Z,85.00
2018-03-02T03:59:02.865Z,84.40
2018-03-02T03:59:36.580Z,85.00
2018-03-02T04:00:09.600Z,84.70
2018-03-02T04:00:43.308Z,84.90
2018-03-02T04:01:16.992Z,85.60
2018-03-02T04:01:50.699Z,84.70
2018-03-02T04:02:24.443Z,84.90
2018-03-02T04:02:58.911Z,84.30
2018-03-02T04:03:32.267Z,84.30
2018-03-02T04:04:05.970Z,84.30
2018-03-02T04:04:39.689Z,84.30
2018-03-02T04:05:13.045Z,84.40
2018-03-02T04:05:46.734Z,83.90
2018-03-02T04:06:20.438Z,83.80
2018-03-02T04:06:54.113Z,83.70
2018-03-02T04:07:27.828Z,84.00
2018-03-02T04:08:01.181Z,83.80
2018-03-02T04:08:34.537Z,83.70
2018-03-02T04:09:08.973Z,83.90
2018-03-02T04:09:42.674Z,83.90
2018-03-02T04:10:16.165Z,84.00
2018-03-02T04:10:49.867Z,84.00
2018-03-02T04:11:23.543Z,83.60
2018-03-02T04:11:57.230Z,83.50
2018-03-02T04:12:30.947Z,83.10
2018-03-02T04:13:04.619Z,83.20
2018-03-02T04:13:38.298Z,82.90
2018-03-02T04:14:11.997Z,83.40
2018-03-02T04:14:45.682Z,83.20
2018-03-02T04:15:19.174Z,83.50
2018-03-02T04:15:52.865Z,83.30
2018-03-02T04:16:26.649Z,83.80
2018-03-02T04:17:00.330Z,83.20
2018-03-02T04:17:34.346Z,83.50
2018-03-02T04:18:08.049Z,83.70
2018-03-02T04:18:41.736Z,83.90
2018-03-02T04:19:15.487Z,83.80
2018-03-02T04:19:49.241Z,83.80
2018-03-02T04:20:23.747Z,83.30
2018-03-02T04:20:58.258Z,83.70
2018-03-02T04:21:32.728Z,83.40
2018-03-02T04:22:06.435Z,83.70
2018-03-02T04:22:40.529Z,82.80
2018-03-02T04:23:14.746Z,82.80
2018-03-02T04:23:49.310Z,83.50
2018-03-02T04:24:23.006Z,83.00
2018-03-02T04:24:56.689Z,82.40
2018-03-02T04:25:30.358Z,82.30
2018-03-02T04:26:03.387Z,82.30
2018-03-02T04:26:37.652Z,82.80
2018-03-02T04:27:11.344Z,82.70
2018-03-02T04:27:45.438Z,82.70
2018-03-02T04:28:19.840Z,82.90
2018-03-02T04:28:53.514Z,83.50
2018-03-02T04:29:27.194Z,83.90
2018-03-02T04:30:01.200Z,83.70
2018-03-02T04:30:35.671Z,83.40
2018-03-02T04:31:09.362Z,83.30
2018-03-02T04:31:43.050Z,84.80
2018-03-02T04:32:16.758Z,83.70
2018-03-02T04:32:50.476Z,83.40
2018-03-02T04:33:24.194Z,83.70
2018-03-02T04:33:57.895Z,84.00
2018-03-02T04:34:32.506Z,84.00
2018-03-02T04:35:06.214Z,83.90
2018-03-02T04:35:39.572Z,84.10
2018-03-02T04:36:13.267Z,84.10
2018-03-02T04:36:46.977Z,84.10
2018-03-02T04:37:20.662Z,84.00
2018-03-02T04:37:54.381Z,83.70
2018-03-02T04:38:28.079Z,83.50
2018-03-02T04:39:02.539Z,83.40
2018-03-02T04:39:36.244Z,83.30
2018-03-02T04:40:09.964Z,83.20
2018-03-02T04:40:43.650Z,83.80
2018-03-02T04:41:18.121Z,84.80
2018-03-02T04:41:51.819Z,84.10
2018-03-02T04:42:25.516Z,84.80
2018-03-02T04:42:59.263Z,85.50
2018-03-02T04:43:32.644Z,85.40
2018-03-02T04:44:06.438Z,85.10
2018-03-02T04:44:39.816Z,85.50
2018-03-02T04:45:13.495Z,85.70
2018-03-02T04:45:47.178Z,85.40
2018-03-02T04:46:21.642Z,85.20
2018-03-02T04:46:55.433Z,85.10
2018-03-02T04:47:29.318Z,85.00
2018-03-02T04:48:03.058Z,84.60
2018-03-02T04:48:37.530Z,84.30
2018-03-02T04:49:11.222Z,84.30
2018-03-02T04:49:44.607Z,84.10
2018-03-02T04:50:18.321Z,84.30
2018-03-02T04:50:52.827Z,83.80
2018-03-02T04:51:26.526Z,84.00
2018-03-02T04:52:00.998Z,84.20
2018-03-02T04:52:34.683Z,84.10
2018-03-02T04:53:08.377Z,84.20
2018-03-02T04:53:42.062Z,84.10
2018-03-02T04:54:15.725Z,83.80
2018-03-02T04:54:49.420Z,84.00
2018-03-02T04:55:23.111Z,85.10
2018-03-02T04:55:56.882Z,83.80
2018-03-02T04:56:31.333Z,83.70
2018-03-02T04:57:04.688Z,83.40
2018-03-02T04:57:39.366Z,83.50
2018-03-02T04:58:13.843Z,83.00
2018-03-02T04:58:47.523Z,83.20
2018-03-02T04:59:21.228Z,82.60
2018-03-02T04:59:54.959Z,82.50
2018-03-02T05:00:29.409Z,82.60
2018-03-02T05:01:03.081Z,83.20
2018-03-02T05:01:36.775Z,82.50
2018-03-02T05:02:10.467Z,82.30
2018-03-02T05:02:44.166Z,82.90
2018-03-02T05:03:17.884Z,83.00
2018-03-02T05:03:51.554Z,82.80
2018-03-02T05:04:25.246Z,82.70
2018-03-02T05:04:58.931Z,83.20
2018-03-02T05:05:32.655Z,83.30
2018-03-02T05:06:06.018Z,83.50
2018-03-02T05:06:39.748Z,84.00
2018-03-02T05:07:14.212Z,84.10
2018-03-02T05:07:47.902Z,83.80
2018-03-02T05:08:22.053Z,84.60
2018-03-02T05:08:56.510Z,84.10
2018-03-02T05:09:30.213Z,84.00
2018-03-02T05:10:03.898Z,83.50
2018-03-02T05:10:37.422Z,83.80
2018-03-02T05:11:11.886Z,83.50
2018-03-02T05:11:45.574Z,82.90
2018-03-02T05:12:19.270Z,83.00
2018-03-02T05:12:52.639Z,84.00
2018-03-02T05:13:26.360Z,82.90
2018-03-02T05:14:00.069Z,82.80
2018-03-02T05:14:34.522Z,83.30
2018-03-02T05:15:08.561Z,83.30
2018-03-02T05:15:42.269Z,83.80
2018-03-02T05:16:16.721Z,83.90
2018-03-02T05:16:50.410Z,83.90
2018-03-02T05:17:24.122Z,85.20
2018-03-02T05:17:57.847Z,84.80
2018-03-02T05:18:32.339Z,84.90
2018-03-02T05:19:06.543Z,84.60
2018-03-02T05:19:40.351Z,83.60
2018-03-02T05:20:14.806Z,84.90
2018-03-02T05:20:48.508Z,86.10
2018-03-02T05:21:22.221Z,85.80
2018-03-02T05:21:55.914Z,83.80
2018-03-02T05:22:29.597Z,84.80
2018-03-02T05:23:03.267Z,83.60
2018-03-02T05:23:36.977Z,83.10
2018-03-02T05:24:11.446Z,83.00
2018-03-02T05:24:45.132Z,82.60
2018-03-02T05:25:18.828Z,83.50
2018-03-02T05:25:52.330Z,83.60
2018-03-02T05:26:26.019Z,83.40
2018-03-02T05:26:59.706Z,83.40
2018-03-02T05:27:33.405Z,83.60
2018-03-02T05:28:07.093Z,83.70
2018-03-02T05:28:40.820Z,84.20
2018-03-02T05:29:15.286Z,84.20
2018-03-02T05:29:48.975Z,84.40
2018-03-02T05:30:22.693Z,84.40
2018-03-02T05:30:56.395Z,84.50
2018-03-02T05:31:30.871Z,85.70
2018-03-02T05:32:04.226Z,84.40
2018-03-02T05:32:37.961Z,84.80
2018-03-02T05:33:11.945Z,85.10
2018-03-02T05:33:45.683Z,84.10
2018-03-02T05:34:19.376Z,84.20
2018-03-02T05:34:53.578Z,85.20
2018-03-02T05:35:27.089Z,84.30
2018-03-02T05:36:00.806Z,83.40
2018-03-02T05:36:34.523Z,84.10
2018-03-02T05:37:08.946Z,99.80
2018-03-02T05:37:42.636Z,99.90
2018-03-02T05:38:17.091Z,87.30
2018-03-02T05:38:50.801Z,85.00
2018-03-02T05:39:24.507Z,81.70
2018-03-02T05:39:58.979Z,81.80
2018-03-02T05:40:32.708Z,82.00
2018-03-02T05:41:07.180Z,82.90
2018-03-02T05:41:40.890Z,83.10
2018-03-02T05:42:14.590Z,82.70
2018-03-02T05:42:49.042Z,82.10
2018-03-02T05:43:22.766Z,82.10
2018-03-02T05:43:57.154Z,82.70
2018-03-02T05:44:31.464Z,83.30
2018-03-02T05:45:04.842Z,83.20
2018-03-02T05:45:38.577Z,83.00
2018-03-02T05:46:12.280Z,83.50
2018-03-02T05:46:46.462Z,83.40
2018-03-02T05:47:20.243Z,83.30
2018-03-02T05:47:53.950Z,82.30
2018-03-02T05:48:28.432Z,83.20
2018-03-02T05:49:02.188Z,82.90
2018-03-02T05:49:35.877Z,83.50
2018-03-02T05:50:09.626Z,83.00
2018-03-02T05:50:43.384Z,83.10
2018-03-02T05:51:17.098Z,83.00
2018-03-02T05:51:50.778Z,83.70
2018-03-02T05:52:24.471Z,83.40
2018-03-02T05:52:58.198Z,83.50
2018-03-02T05:53:32.662Z,83.40
2018-03-02T05:54:06.394Z,83.70
2018-03-02T05:54:40.883Z,83.60
2018-03-02T05:55:14.575Z,83.70
2018-03-02T05:55:49.783Z,83.30
2018-03-02T05:56:23.468Z,83.20
2018-03-02T05:56:57.179Z,83.70
2018-03-02T05:57:30.886Z,84.00
2018-03-02T05:58:04.709Z,83.70
2018-03-02T05:58:38.398Z,84.10
2018-03-02T05:59:11.799Z,83.60
2018-03-02T05:59:45.499Z,83.60
2018-03-02T06:00:19.195Z,83.60
2018-03-02T06:00:53.554Z,84.00
2018-03-02T06:01:27.266Z,84.10
2018-03-02T06:02:00.954Z,83.80
2018-03-02T06:02:34.647Z,83.50
2018-03-02T06:03:08.397Z,83.60
2018-03-02T06:03:42.855Z,83.20
2018-03-02T06:04:16.596Z,83.40
2018-03-02T06:04:50.296Z,83.40
2018-03-02T06:05:24.743Z,83.50
2018-03-02T06:05:59.405Z,83.50
2018-03-02T06:06:33.839Z,83.90
2018-03-02T06:07:07.526Z,83.40
2018-03-02T06:07:41.218Z,83.20
2018-03-02T06:08:14.943Z,83.60
2018-03-02T06:08:48.660Z,82.30
2018-03-02T06:09:22.387Z,81.80
2018-03-02T06:09:56.106Z,82.10
2018-03-02T06:10:29.845Z,82.30
2018-03-02T06:11:04.289Z,82.70
2018-03-02T06:11:38.177Z,82.50
2018-03-02T06:12:11.539Z,82.20
2018-03-02T06:12:46.044Z,82.00
2018-03-02T06:13:20.478Z,82.70
2018-03-02T06:13:54.193Z,82.50
2018-03-02T06:14:28.018Z,82.90
2018-03-02T06:15:01.709Z,83.40
2018-03-02T06:15:35.428Z,84.00
2018-03-02T06:16:09.186Z,84.70
2018-03-02T06:16:42.950Z,83.40
2018-03-02T06:17:16.667Z,83.00
2018-03-02T06:17:50.333Z,82.80
2018-03-02T06:18:23.855Z,81.90
2018-03-02T06:18:57.552Z,82.40
2018-03-02T06:19:32.026Z,83.70
2018-03-02T06:20:05.733Z,84.70
2018-03-02T06:20:39.430Z,85.90
2018-03-02T06:21:13.117Z,83.80
2018-03-02T06:21:46.509Z,83.50
2018-03-02T06:22:20.986Z,83.80
2018-03-02T06:22:54.693Z,83.50
2018-03-02T06:23:28.074Z,83.00
2018-03-02T06:24:01.566Z,83.30
2018-03-02T06:24:35.271Z,83.50
2018-03-02T06:25:09.708Z,84.30
2018-03-02T06:25:43.422Z,83.50
2018-03-02T06:26:17.123Z,84.00
2018-03-02T06:26:50.811Z,83.90
2018-03-02T06:27:24.492Z,83.70
2018-03-02T06:27:58.404Z,83.70
2018-03-02T06:28:32.225Z,84.00
2018-03-02T06:29:06.680Z,84.80
2018-03-02T06:29:40.389Z,84.80
2018-03-02T06:30:14.087Z,84.90
2018-03-02T06:30:47.751Z,84.50
2018-03-02T06:31:21.089Z,85.00
2018-03-02T06:31:55.537Z,85.30
2018-03-02T06:32:29.229Z,84.00
2018-03-02T06:33:02.932Z,83.80
2018-03-02T06:33:36.628Z,83.90
2018-03-02T06:34:11.290Z,84.70
2018-03-02T06:34:45.094Z,84.10
2018-03-02T06:35:18.772Z,84.00
2018-03-02T06:35:53.230Z,83.60
2018-03-02T06:36:26.915Z,83.60
2018-03-02T06:37:00.681Z,83.80
2018-03-02T06:37:34.502Z,83.80
2018-03-02T06:38:08.061Z,83.90
2018-03-02T06:38:41.998Z,83.90
2018-03-02T06:39:16.124Z,84.00
2018-03-02T06:39:50.263Z,83.60
2018-03-02T06:40:23.953Z,83.50
2018-03-02T06:40:57.701Z,83.00
2018-03-02T06:41:32.135Z,83.20
2018-03-02T06:42:05.845Z,83.20
2018-03-02T06:42:39.533Z,83.20
2018-03-02T06:43:12.899Z,83.80
2018-03-02T06:43:46.582Z,88.30
2018-03-02T06:44:21.031Z,85.00
2018-03-02T06:44:54.770Z,84.40
2018-03-02T06:45:29.246Z,84.20
2018-03-02T06:46:02.658Z,84.00
2018-03-02T06:46:37.098Z,82.90
2018-03-02T06:47:10.803Z,82.60
2018-03-02T06:47:44.467Z,81.70
2018-03-02T06:48:18.154Z,84.10
2018-03-02T06:48:52.591Z,85.40
2018-03-02T06:49:26.282Z,87.70
2018-03-02T06:50:00.002Z,85.00
2018-03-02T06:50:34.449Z,84.00
2018-03-02T06:51:08.144Z,84.70
2018-03-02T06:51:41.824Z,87.40
2018-03-02T06:52:16.078Z,91.10
2018-03-02T06:52:49.772Z,99.90
2018-03-02T06:53:23.443Z,89.60
2018-03-02T06:53:57.139Z,87.60
2018-03-02T06:54:30.828Z,89.70
2018-03-02T06:55:04.352Z,89.90
2018-03-02T06:55:38.816Z,89.20
2018-03-02T06:56:12.509Z,90.90
2018-03-02T06:56:46.199Z,90.40
2018-03-02T06:57:19.888Z,88.00
2018-03-02T06:57:53.570Z,92.30
2018-03-02T06:58:27.235Z,94.50
2018-03-02T06:59:01.694Z,97.40
2018-03-02T06:59:35.086Z,99.90
2018-03-02T07:00:08.173Z,99.90
2018-03-02T07:00:41.863Z,99.00
2018-03-02T07:01:15.543Z,99.90
2018-03-02T07:01:49.246Z,99.90
2018-03-02T07:02:22.936Z,99.90
2018-03-02T07:02:57.404Z,99.90
2018-03-02T07:03:31.139Z,99.90
2018-03-02T07:04:05.335Z,99.90
2018-03-02T07:04:39.798Z,99.90
2018-03-02T07:05:13.323Z,99.90
2018-03-02T07:05:47.020Z,99.90
2018-03-02T07:06:20.709Z,99.90
2018-03-02T07:06:54.391Z,99.90
2018-03-02T07:07:28.118Z,99.90
2018-03-02T07:08:01.486Z,99.90
2018-03-02T07:08:35.958Z,99.90
2018-03-02T07:09:09.675Z,99.90
2018-03-02T07:09:44.161Z,99.90
2018-03-02T07:10:17.905Z,99.90
2018-03-02T07:10:51.134Z,99.90
2018-03-02T07:11:24.909Z,95.30
2018-03-02T07:11:58.635Z,99.60
2018-03-02T07:12:32.331Z,99.90
2018-03-02T07:13:06.045Z,99.90
2018-03-02T07:13:39.763Z,99.90
2018-03-02T07:14:13.483Z,99.90
2018-03-02T07:14:47.191Z,99.90
2018-03-02T07:15:20.898Z,99.90